Time;durP1;ratioP1;P1;durP2;ratioP2;P2;SDS_P1;SDS_P2;PMS_P1;PMS_P2;Temp;Humidity;BMP_temperature;BMP_pressure;BME280_temperature;BME280_humidity;BME280_pressure;Samples;Min_cycle;Max_cycle;Signal;HPM_P1;HPM_P2
2023/05/28 00:00:08;;;;;;;11.40;8.20;;;;;;;18.48;100.00;99773.56;5008544;28;20037;-18
2023/05/28 00:02:33;;;;;;;11.37;8.17;;;;;;;18.50;100.00;99764.41;5009939;28;20417;-18
2023/05/28 00:05:00;;;;;;;14.82;8.82;;;;;;;18.33;100.00;99775.53;5009614;28;20481;-18
2023/05/28 00:07:28;;;;;;;11.07;8.55;;;;;;;18.24;100.00;99753.72;5010175;28;20018;-19
2023/05/28 00:09:53;;;;;;;;;;;;;;;18.36;100.00;99773.09;5010653;28;20026;-19
2023/05/28 00:12:19;;;;;;;11.10;8.38;;;;;;;18.26;100.00;99770.44;5010057;28;19948;-18
2023/05/28 00:14:45;;;;;;;13.55;9.02;;;;;;;18.27;100.00;99766.69;5009737;28;20038;-18
2023/05/28 00:17:11;;;;;;;11.02;7.50;;;;;;;18.26;100.00;99768.56;5009846;28;20038;-18
2023/05/28 00:19:36;;;;;;;13.00;8.20;;;;;;;18.09;100.00;99754.59;5009356;28;20026;-18
2023/05/28 00:22:02;;;;;;;12.95;8.13;;;;;;;18.17;100.00;99772.13;5009520;28;20022;-18
2023/05/28 00:24:27;;;;;;;12.55;8.48;;;;;;;18.15;100.00;99769.69;5009686;28;20044;-18
2023/05/28 00:26:53;;;;;;;12.77;8.50;;;;;;;18.09;100.00;99770.78;5009686;28;20180;-18
2023/05/28 00:29:20;;;;;;;12.82;8.68;;;;;;;18.01;100.00;99766.78;5009613;28;20127;-18
2023/05/28 00:31:45;;;;;;;12.35;8.75;;;;;;;18.12;100.00;99766.72;5009300;28;20041;-19
2023/05/28 00:34:10;;;;;;;12.77;8.63;;;;;;;18.05;100.00;99765.13;5009423;28;20033;-21
2023/05/28 00:36:36;;;;;;;13.73;8.48;;;;;;;17.93;100.00;99756.56;5009329;28;20439;-18
2023/05/28 00:39:04;;;;;;;11.77;8.55;;;;;;;18.03;100.00;99764.59;5009477;28;20057;-21
2023/05/28 00:41:30;;;;;;;12.18;8.48;;;;;;;17.97;100.00;99756.81;5009239;28;20121;-19
2023/05/28 00:43:56;;;;;;;12.57;8.13;;;;;;;17.76;100.00;99748.75;5009074;28;20704;-20
2023/05/28 00:46:23;;;;;;;10.90;7.88;;;;;;;18.10;100.00;99752.72;5009311;28;20029;-23
2023/05/28 00:48:50;;;;;;;11.77;7.65;;;;;;;17.98;100.00;99743.06;5009255;28;20517;-18
2023/05/28 00:51:15;;;;;;;12.38;7.45;;;;;;;17.87;100.00;99731.47;5009123;28;20124;-22
2023/05/28 00:53:41;;;;;;;11.27;8.02;;;;;;;17.84;100.00;99736.63;5009129;28;20148;-19
2023/05/28 00:56:09;;;;;;;10.30;7.57;;;;;;;17.84;100.00;99731.25;5009237;28;20108;-20
2023/05/28 00:58:39;;;;;;;10.55;7.13;;;;;;;17.99;100.00;99755.44;5007442;28;20654;-19
2023/05/28 01:01:06;;;;;;;12.07;7.47;;;;;;;17.93;100.00;99753.84;5009030;28;20093;-18
2023/05/28 01:03:32;;;;;;;9.30;6.77;;;;;;;17.79;100.00;99744.69;5008649;28;20026;-19
2023/05/28 01:06:01;;;;;;;11.57;6.45;;;;;;;17.75;100.00;99749.81;5009060;28;20052;-18
2023/05/28 01:08:27;;;;;;;8.35;6.75;;;;;;;17.76;100.00;99756.06;5008839;28;20052;-18
2023/05/28 01:10:53;;;;;;;9.90;6.05;;;;;;;17.73;100.00;99751.19;5008646;28;20034;-19
2023/05/28 01:13:18;;;;;;;9.82;6.05;;;;;;;17.73;100.00;99745.78;5008762;28;20127;-19
2023/05/28 01:15:45;;;;;;;9.55;6.53;;;;;;;17.82;100.00;99742.25;5008541;28;20034;-19
2023/05/28 01:18:11;;;;;;;11.30;6.90;;;;;;;17.80;100.00;99738.22;5008765;28;20029;-20
2023/05/28 01:20:37;;;;;;;8.80;5.57;;;;;;;17.96;100.00;99749.78;5008834;28;20163;-18
2023/05/28 01:23:10;;;;;;;7.00;5.45;;;;;;;17.73;100.00;99733.09;5008306;28;20904;-18
2023/05/28 01:25:38;;;;;;;9.60;6.00;;;;;;;17.53;100.00;99736.69;5008529;28;20025;-19
2023/05/28 01:28:13;;;;;;;8.52;6.13;;;;;;;17.41;100.00;99728.09;5008415;28;20029;-18
2023/05/28 01:30:38;;;;;;;12.23;7.28;;;;;;;17.81;100.00;99729.03;5008330;28;20125;-18
2023/05/28 01:33:05;;;;;;;9.15;6.80;;;;;;;17.99;100.00;99728.47;5008352;28;20026;-18
2023/05/28 01:35:30;;;;;;;9.32;6.20;;;;;;;17.78;100.00;99729.59;5008214;28;20021;-18
2023/05/28 01:37:59;;;;;;;11.15;6.35;;;;;;;17.36;100.00;99722.69;5007676;28;20467;-18
2023/05/28 01:40:27;;;;;;;10.35;6.85;;;;;;;17.33;100.00;99725.94;5008035;28;20037;-18
2023/05/28 01:42:55;;;;;;;9.05;6.95;;;;;;;17.41;100.00;99733.47;5008020;28;20030;-19
2023/05/28 01:45:21;;;;;;;10.00;7.05;;;;;;;17.23;100.00;99724.88;5008347;28;20040;-19
2023/05/28 01:47:47;;;;;;;11.13;7.78;;;;;;;17.21;100.00;99716.25;5008123;28;20113;-17
2023/05/28 01:50:13;;;;;;;11.18;7.13;;;;;;;17.41;100.00;99722.69;5008065;28;20475;-18
2023/05/28 01:52:39;;;;;;;9.15;6.93;;;;;;;17.79;100.00;99723.13;5007918;28;20037;-19
2023/05/28 01:55:05;;;;;;;11.18;6.95;;;;;;;17.84;100.00;99704.25;5008002;28;20029;-19
2023/05/28 01:57:31;;;;;;;10.48;7.22;;;;;;;17.85;100.00;99722.06;5007895;28;20036;-18
2023/05/28 01:59:56;;;;;;;10.20;7.20;;;;;;;17.77;100.00;99725.28;5007669;28;20033;-18
2023/05/28 02:02:26;;;;;;;10.25;6.97;;;;;;;17.58;100.00;99717.00;5008024;28;20025;-19
2023/05/28 02:04:52;;;;;;;10.00;6.88;;;;;;;17.88;100.00;99729.59;5008102;28;20040;-18
2023/05/28 02:07:18;;;;;;;10.52;6.93;;;;;;;18.13;100.00;99733.28;5007875;28;20041;-18
2023/05/28 02:09:44;;;;;;;9.75;7.32;;;;;;;17.96;100.00;99745.22;5007622;28;20053;-19
2023/05/28 02:12:11;;;;;;;12.05;8.07;;;;;;;18.20;100.00;99734.56;5007494;28;20053;-20
2023/05/28 02:14:36;;;;;;;11.30;7.72;;;;;;;18.21;100.00;99746.19;5007229;28;20045;-17
2023/05/28 02:17:01;;;;;;;10.10;6.97;;;;;;;18.12;100.00;99751.34;5007465;28;20711;-18
2023/05/28 02:19:27;;;;;;;13.90;8.27;;;;;;;18.13;100.00;99755.66;5007588;28;20026;-18
2023/05/28 02:21:53;;;;;;;11.35;7.32;;;;;;;18.18;100.00;99768.31;5007069;28;20028;-18
2023/05/28 02:24:18;;;;;;;9.88;6.90;;;;;;;18.00;100.00;99762.47;5007387;28;20030;-19
2023/05/28 02:26:44;;;;;;;11.98;6.97;;;;;;;17.93;100.00;99767.34;5007254;28;20064;-18
2023/05/28 02:29:10;;;;;;;10.73;5.00;;;;;;;17.77;100.00;99763.84;5007547;28;20056;-18
2023/05/28 02:31:35;;;;;;;7.68;4.80;;;;;;;17.60;100.00;99766.06;5007202;28;20424;-18
2023/05/28 02:34:01;;;;;;;7.47;4.75;;;;;;;17.68;100.00;99743.94;5006975;28;20128;-17
2023/05/28 02:36:26;;;;;;;7.40;5.20;;;;;;;17.83;100.00;99753.88;5007211;28;20033;-18
2023/05/28 02:38:51;;;;;;;10.20;4.70;;;;;;;17.42;100.00;99762.03;5007321;28;20028;-17
2023/05/28 02:41:17;;;;;;;11.00;5.07;;;;;;;17.46;100.00;99757.72;5006586;28;20100;-18
2023/05/28 02:43:43;;;;;;;7.53;5.43;;;;;;;17.42;100.00;99752.06;5006910;28;20131;-20
2023/05/28 02:46:09;;;;;;;9.52;5.03;;;;;;;17.56;100.00;99752.31;5007127;28;20029;-18
2023/05/28 02:48:34;;;;;;;11.02;5.20;;;;;;;17.67;100.00;99743.13;5006886;28;20033;-18
2023/05/28 02:51:00;;;;;;;12.95;5.50;;;;;;;17.68;100.00;99754.72;5007006;28;20030;-18
2023/05/28 02:53:29;;;;;;;9.32;5.45;;;;;;;17.56;100.00;99751.50;5007182;28;20022;-18
2023/05/28 02:55:54;;;;;;;9.40;5.05;;;;;;;17.52;100.00;99745.84;5007026;28;20028;-23
2023/05/28 02:58:20;;;;;;;11.60;4.80;;;;;;;17.54;100.00;99749.06;5007137;28;20025;-19
2023/05/28 03:00:46;;;;;;;6.30;4.75;;;;;;;17.48;100.00;99750.97;5006775;28;20026;-18
2023/05/28 03:03:11;;;;;;;8.20;4.88;;;;;;;17.58;100.00;99741.25;5006673;28;20415;-19
2023/05/28 03:05:36;;;;;;;7.13;4.72;;;;;;;17.36;100.00;99745.06;5006750;28;20088;-19
2023/05/28 03:08:03;;;;;;;6.45;4.57;;;;;;;17.31;100.00;99746.97;5006898;28;20030;-19
2023/05/28 03:10:28;;;;;;;8.75;5.15;;;;;;;17.43;100.00;99742.09;5006761;28;20033;-18
2023/05/28 03:12:54;;;;;;;11.00;5.63;;;;;;;17.45;100.00;99739.94;5007126;28;20030;-18
2023/05/28 03:15:19;;;;;;;6.63;4.68;;;;;;;17.54;100.00;99735.59;5006778;28;20044;-19
2023/05/28 03:17:45;;;;;;;7.30;4.85;;;;;;;17.57;100.00;99753.94;5006582;28;20806;-18
2023/05/28 03:20:11;;;;;;;7.43;4.90;;;;;;;17.27;100.00;99758.28;5006585;28;20069;-20
2023/05/28 03:22:38;;;;;;;8.73;4.93;;;;;;;17.27;100.00;99758.28;5006555;28;20156;-19
2023/05/28 03:25:05;;;;;;;6.78;4.40;;;;;;;17.41;100.00;99760.44;5006372;28;20723;-19
2023/05/28 03:27:31;;;;;;;7.43;5.07;;;;;;;17.42;100.00;99764.72;5006584;28;20034;-18
2023/05/28 03:29:56;;;;;;;8.07;5.10;;;;;;;17.38;100.00;99777.94;5006393;28;20033;-20
2023/05/28 03:32:22;;;;;;;10.25;5.25;;;;;;;17.67;100.00;99778.19;5006642;28;20034;-18
2023/05/28 03:34:47;;;;;;;9.57;4.97;;;;;;;17.21;100.00;99767.44;5008471;28;20041;-19
2023/05/28 03:37:12;;;;;;;9.00;5.32;;;;;;;17.40;100.00;99774.97;5010577;28;20084;-20
2023/05/28 03:39:38;;;;;;;8.98;5.25;;;;;;;17.62;100.00;99783.56;5010570;28;20072;-20
2023/05/28 03:42:05;;;;;;;7.60;5.32;;;;;;;17.56;100.00;99773.88;5010174;28;20484;-18
2023/05/28 03:44:30;;;;;;;6.63;5.27;;;;;;;17.51;100.00;99776.59;5010417;28;20036;-20
2023/05/28 03:46:56;;;;;;;9.80;5.63;;;;;;;17.56;100.00;99778.47;5010264;28;20030;-22
2023/05/28 03:49:21;;;;;;;8.90;5.43;;;;;;;17.63;100.00;99774.41;5010336;28;20034;-18
2023/05/28 03:51:47;;;;;;;11.77;5.40;;;;;;;17.49;100.00;99778.75;5010140;28;20156;-18
2023/05/28 03:54:12;;;;;;;8.60;5.20;;;;;;;17.53;100.00;99773.59;5010222;28;20040;-22
2023/05/28 03:56:39;;;;;;;11.32;6.13;;;;;;;17.50;100.00;99774.97;5010271;28;20140;-18
2023/05/28 03:59:04;;;;;;;10.90;5.65;;;;;;;17.46;100.00;99777.38;5010313;28;20026;-18
2023/05/28 04:01:30;;;;;;;7.45;5.65;;;;;;;17.43;100.00;99785.22;5010509;28;20032;-18
2023/05/28 04:03:55;;;;;;;9.65;5.93;;;;;;;17.38;100.00;99779.81;5010025;28;20424;-17
2023/05/28 04:06:22;;;;;;;7.35;5.35;;;;;;;17.37;100.00;99770.94;5010089;28;20026;-19
2023/05/28 04:08:48;;;;;;;8.07;5.40;;;;;;;17.48;100.00;99775.22;5009999;28;20022;-18
2023/05/28 04:11:13;;;;;;;11.52;6.30;;;;;;;17.47;100.00;99784.41;5010380;28;20418;-21
2023/05/28 04:13:40;;;;;;;10.05;5.80;;;;;;;17.45;100.00;99777.69;5009849;28;20033;-19
2023/05/28 04:16:05;;;;;;;9.18;5.85;;;;;;;17.59;100.00;99794.09;5010072;28;20108;-19
2023/05/28 04:18:31;;;;;;;10.35;6.97;;;;;;;17.60;100.00;99785.72;5009871;28;20521;-19
2023/05/28 04:20:56;;;;;;;9.88;6.15;;;;;;;17.63;100.00;99793.28;5009838;28;20026;-19
2023/05/28 04:23:22;;;;;;;9.43;6.35;;;;;;;17.63;100.00;99790.59;5009692;28;20088;-19
2023/05/28 04:25:47;;;;;;;8.57;6.10;;;;;;;17.52;100.00;99788.97;5009584;28;20197;-19
2023/05/28 04:28:14;;;;;;;8.70;6.35;;;;;;;17.52;100.00;99786.28;5009749;28;20018;-19
2023/05/28 04:30:39;;;;;;;8.40;5.72;;;;;;;17.59;100.00;99786.00;5009566;28;20471;-18
2023/05/28 04:33:05;;;;;;;9.45;6.75;;;;;;;17.53;100.00;99792.47;5009713;28;20038;-20
2023/05/28 04:35:31;;;;;;;8.18;6.25;;;;;;;17.63;100.00;99796.00;5009679;28;20038;-19
2023/05/28 04:37:56;;;;;;;11.75;7.05;;;;;;;17.57;100.00;99797.06;5009363;28;20034;-19
2023/05/28 04:40:21;;;;;;;10.93;6.80;;;;;;;17.65;100.00;99807.31;5009199;28;20708;-18
2023/05/28 04:42:53;;;;;;;9.55;6.85;;;;;;;17.52;100.00;99805.16;5009211;28;20030;-18
2023/05/28 04:45:19;;;;;;;9.82;6.82;;;;;;;17.61;100.00;99806.25;5008966;28;20025;-18
2023/05/28 04:47:44;;;;;;;11.20;6.22;;;;;;;17.53;100.00;99787.91;5009200;28;20153;-18
2023/05/28 04:50:10;;;;;;;9.45;6.45;;;;;;;17.59;100.00;99804.88;5009210;28;20091;-18
2023/05/28 04:52:35;;;;;;;10.50;6.72;;;;;;;17.73;100.00;99808.63;5008879;28;20043;-18
2023/05/28 04:55:05;;;;;;;9.20;6.72;;;;;;;17.73;100.00;99811.31;5009325;28;20018;-22
2023/05/28 04:57:32;;;;;;;9.55;6.50;;;;;;;17.74;100.00;99812.16;5008905;28;20022;-18
2023/05/28 04:59:57;;;;;;;9.40;6.75;;;;;;;17.70;100.00;99816.47;5009040;28;20023;-19
2023/05/28 05:02:23;;;;;;;8.35;6.18;;;;;;;17.75;100.00;99813.75;5007887;28;20467;-19
2023/05/28 05:04:48;;;;;;;9.07;6.43;;;;;;;17.89;100.00;99809.44;5007860;28;20048;-19
2023/05/28 05:07:14;;;;;;;10.32;6.90;;;;;;;17.84;100.00;99806.75;5008975;28;20479;-17
2023/05/28 05:09:40;;;;;;;9.73;6.80;;;;;;;17.71;100.00;99818.88;5008929;28;20030;-19
2023/05/28 05:12:07;;;;;;;9.43;6.30;;;;;;;17.63;100.00;99806.78;5009118;28;20029;-20
2023/05/28 05:14:33;;;;;;;10.23;6.72;;;;;;;17.55;100.00;99804.63;5008864;28;20030;-18
2023/05/28 05:16:59;;;;;;;9.43;6.72;;;;;;;17.52;100.00;99799.75;5008813;28;20026;-24
2023/05/28 05:19:25;;;;;;;10.60;6.80;;;;;;;17.53;100.00;99800.56;5008965;28;20030;-19
2023/05/28 05:21:51;;;;;;;10.55;5.68;;;;;;;17.57;100.00;99802.47;5008658;28;20124;-19
2023/05/28 05:24:16;;;;;;;10.88;6.80;;;;;;;17.75;100.00;99808.34;5008530;28;20117;-19
2023/05/28 05:26:42;;;;;;;9.45;6.25;;;;;;;17.82;100.00;99808.91;5008479;28;20022;-18
2023/05/28 05:29:07;;;;;;;9.50;6.47;;;;;;;17.93;100.00;99807.81;5008508;28;20014;-18
2023/05/28 05:31:33;;;;;;;10.30;6.20;;;;;;;18.01;100.00;99812.63;5008040;28;20030;-18
2023/05/28 05:33:58;;;;;;;9.20;6.57;;;;;;;18.14;100.00;99810.44;5008045;28;20105;-22
2023/05/28 05:36:23;;;;;;;8.63;6.28;;;;;;;18.05;100.00;99813.72;5008423;28;20515;-19
2023/05/28 05:38:49;;;;;;;9.00;6.22;;;;;;;17.95;100.00;99802.94;5008265;28;20096;-18
2023/05/28 05:41:14;;;;;;;9.77;6.40;;;;;;;18.18;100.00;99808.81;5016218;28;20053;-18
2023/05/28 05:43:40;;;;;;;8.95;5.65;;;;;;;18.32;100.00;99807.13;5028240;28;20420;-18
2023/05/28 05:46:05;;;;;;;8.02;5.90;;;;;;;18.47;100.00;99803.56;5008891;28;20021;-19
2023/05/28 05:48:31;;;;;;;8.45;5.80;;;;;;;18.24;100.00;99816.59;5008072;28;20413;-18
2023/05/28 05:50:58;;;;;;;8.57;5.45;;;;;;;18.50;100.00;99823.81;5008507;28;20096;-19
2023/05/28 05:53:24;;;;;;;7.13;5.15;;;;;;;18.51;100.00;99828.09;5008331;28;20077;-20
2023/05/28 05:55:50;;;;;;;9.15;6.63;;;;;;;18.57;100.00;99824.31;5007954;28;20037;-19
2023/05/28 05:58:16;;;;;;;9.15;7.93;;;;;;;18.45;100.00;99816.56;5006873;28;20040;-19
2023/05/28 06:00:41;;;;;;;8.63;6.40;;;;;;;18.54;100.00;99824.88;5008091;28;20030;-19
2023/05/28 06:03:07;;;;;;;7.82;6.32;;;;;;;18.57;100.00;99814.34;5007908;28;20417;-18
2023/05/28 06:05:33;;;;;;;12.52;6.30;;;;;;;18.83;100.00;99815.00;5007937;28;20045;-18
2023/05/28 06:07:58;;;;;;;9.23;5.63;;;;;;;18.74;100.00;99819.38;5007848;28;20026;-22
2023/05/28 06:10:24;;;;;;;10.25;7.90;;;;;;;18.74;100.00;99824.75;5007877;28;20406;-19
2023/05/28 06:12:49;;;;;;;17.65;13.32;;;;;;;18.80;100.00;99822.88;5007600;28;20036;-18
2023/05/28 06:15:15;;;;;;;9.48;6.93;;;;;;;18.52;100.00;99827.03;5007522;28;20095;-18
2023/05/28 06:17:41;;;;;;;8.52;5.88;;;;;;;18.35;100.00;99828.19;5007758;28;20033;-19
2023/05/28 06:20:08;;;;;;;10.25;5.53;;;;;;;18.37;100.00;99820.63;5007403;28;20061;-18
2023/05/28 06:22:33;;;;;;;10.20;6.90;;;;;;;18.40;100.00;99814.66;5007551;28;20041;-19
2023/05/28 06:25:00;;;;;;;41.05;25.05;;;;;;;18.58;100.00;99829.44;5006033;28;20030;-17
2023/05/28 06:27:26;;;;;;;10.87;7.50;;;;;;;18.78;100.00;99831.22;5007771;28;20022;-18
2023/05/28 06:29:51;;;;;;;9.98;5.82;;;;;;;18.77;100.00;99829.59;5007401;28;20079;-18
2023/05/28 06:32:17;;;;;;;8.57;5.65;;;;;;;18.84;100.00;99834.75;5007392;28;20022;-18
2023/05/28 06:34:43;;;;;;;10.10;5.10;;;;;;;18.91;100.00;99829.00;5007292;28;20061;-19
2023/05/28 06:37:08;;;;;;;9.02;6.45;;;;;;;18.88;100.00;99827.69;5007034;28;20429;-18
2023/05/28 06:39:34;;;;;;;7.68;5.38;;;;;;;18.88;100.00;99841.19;5007128;28;20033;-18
2023/05/28 06:41:59;;;;;;;24.17;13.98;;;;;;;19.02;100.00;99834.09;5007239;28;20048;-18
2023/05/28 06:44:25;;;;;;;56.38;29.33;;;;;;;19.10;100.00;99827.25;5007158;28;20025;-18
2023/05/28 06:46:52;;;;;;;10.00;6.60;;;;;;;19.30;100.00;99836.31;5006314;28;20041;-18
2023/05/28 06:49:17;;;;;;;13.27;7.30;;;;;;;19.53;100.00;99830.16;5006280;28;20052;-18
2023/05/28 06:51:43;;;;;;;12.77;7.63;;;;;;;19.76;100.00;99834.03;5007039;28;20083;-18
2023/05/28 06:54:08;;;;;;;7.97;5.18;;;;;;;19.64;100.00;99837.09;5005742;28;20037;-19
2023/05/28 06:56:34;;;;;;;9.43;4.65;;;;;;;19.60;100.00;99838.75;5007203;28;20460;-23
2023/05/28 06:58:59;;;;;;;10.40;6.20;;;;;;;19.74;100.00;99835.44;5007060;28;20040;-18
2023/05/28 07:01:25;;;;;;;7.72;5.03;;;;;;;19.37;100.00;99842.19;5006277;28;20040;-19
2023/05/28 07:03:50;;;;;;;11.45;6.05;;;;;;;19.40;100.00;99839.72;5004830;28;20038;-20
2023/05/28 07:06:15;;;;;;;8.10;5.43;;;;;;;19.47;100.00;99836.69;5005567;28;20018;-18
2023/05/28 07:08:44;;;;;;;10.15;5.57;;;;;;;19.23;100.00;99820.41;5005059;28;20030;-23
2023/05/28 07:11:11;;;;;;;9.40;6.60;;;;;;;19.41;100.00;99832.41;5003123;28;20021;-19
2023/05/28 07:13:37;;;;;;;8.30;5.40;;;;;;;19.46;100.00;99841.31;5005711;28;20067;-19
2023/05/28 07:16:02;;;;;;;8.50;5.63;;;;;;;19.47;100.00;99847.50;5006705;28;20033;-19
2023/05/28 07:18:28;;;;;;;7.38;4.55;;;;;;;19.63;100.00;99834.66;5006785;28;20026;-20
2023/05/28 07:20:53;;;;;;;10.13;4.68;;;;;;;19.77;100.00;99842.97;5005263;28;20036;-19
2023/05/28 07:23:19;;;;;;;6.90;4.63;;;;;;;19.86;100.00;99847.47;5005441;28;20025;-19
2023/05/28 07:25:44;;;;;;;7.18;4.50;;;;;;;19.86;100.00;99836.66;5005354;28;20513;-21
2023/05/28 07:28:10;;;;;;;7.28;4.22;;;;;;;19.86;100.00;99844.78;5005600;28;20775;-19
2023/05/28 07:30:35;;;;;;;8.98;4.90;;;;;;;19.80;100.00;99829.69;5005226;28;20021;-19
2023/05/28 07:33:01;;;;;;;10.00;4.75;;;;;;;19.98;100.00;99838.97;5006047;28;20033;-18
2023/05/28 07:35:26;;;;;;;6.50;4.57;;;;;;;20.04;100.00;99845.94;5006502;28;20030;-17
2023/05/28 07:37:54;;;;;;;7.70;5.40;;;;;;;20.18;100.00;99845.25;5006720;28;20560;-18
2023/05/28 07:40:19;;;;;;;6.68;4.50;;;;;;;20.01;100.00;99841.09;5006094;28;20492;-18
2023/05/28 07:42:45;;;;;;;6.88;4.55;;;;;;;20.04;100.00;99829.72;5006336;28;20045;-18
2023/05/28 07:45:10;;;;;;;7.10;4.28;;;;;;;19.94;100.00;99818.16;5006449;28;20033;-18
2023/05/28 07:47:36;;;;;;;7.78;4.90;;;;;;;19.82;100.00;99832.91;5006264;28;20032;-19
2023/05/28 07:50:04;;;;;;;6.78;4.43;;;;;;;19.72;100.00;99834.91;5005714;28;20084;-18
2023/05/28 07:52:29;;;;;;;;;;;;;;;19.91;100.00;99824.97;5006731;28;20113;-25
2023/05/28 07:54:58;;;;;;;8.27;4.57;;;;;;;19.76;100.00;99833.25;5006377;28;20015;-19
2023/05/28 07:57:24;;;;;;;8.65;4.85;;;;;;;19.74;100.00;99825.41;5005665;28;20037;-19
2023/05/28 07:59:49;;;;;;;9.93;5.13;;;;;;;19.83;100.00;99812.84;5006108;28;20034;-19
2023/05/28 08:02:15;;;;;;;7.80;4.72;;;;;;;19.97;100.00;99818.41;5006217;28;20378;-19
2023/05/28 08:04:40;;;;;;;7.40;5.13;;;;;;;19.97;100.00;99818.41;5004437;28;20034;-20
2023/05/28 08:07:06;;;;;;;7.90;5.00;;;;;;;19.99;100.00;99827.03;5004609;28;20428;-19
2023/05/28 08:09:31;;;;;;;9.52;4.38;;;;;;;20.16;100.00;99831.19;5006377;28;20034;-19
2023/05/28 08:11:57;;;;;;;6.00;4.18;;;;;;;20.00;100.00;99822.44;5006073;28;20038;-19
2023/05/28 08:14:22;;;;;;;5.40;3.80;;;;;;;20.07;100.00;99829.13;5005327;28;20056;-23
2023/05/28 08:16:48;;;;;;;11.43;5.28;;;;;;;20.19;100.00;99830.63;5005817;28;20062;-20
2023/05/28 08:19:13;;;;;;;7.25;4.15;;;;;;;20.14;100.00;99841.50;5006182;28;20032;-19
2023/05/28 08:21:38;;;;;;;7.40;4.20;;;;;;;19.94;100.00;99840.66;5009301;28;20526;-19
2023/05/28 08:24:04;;;;;;;7.25;4.35;;;;;;;19.90;100.00;99834.19;5009927;28;20029;-19
2023/05/28 08:26:30;;;;;;;6.10;4.10;;;;;;;19.81;100.00;99841.31;5009599;28;20034;-20
2023/05/28 08:28:55;;;;;;;7.55;4.07;;;;;;;19.50;100.00;99825.31;5009295;28;20092;-19
2023/05/28 08:31:21;;;;;;;6.63;4.28;;;;;;;19.48;100.00;99832.91;5009525;28;20024;-19
2023/05/28 08:33:46;;;;;;;7.47;4.20;;;;;;;19.38;100.00;99830.31;5009647;28;20485;-19
2023/05/28 08:36:12;;;;;;;7.00;4.70;;;;;;;19.45;100.00;99833.47;5009578;28;20042;-18
2023/05/28 08:38:37;;;;;;;7.43;4.35;;;;;;;19.31;100.00;99824.41;5007993;28;20056;-20
2023/05/28 08:41:03;;;;;;;7.40;4.55;;;;;;;19.28;100.00;99820.38;5009608;28;20065;-19
2023/05/28 08:43:28;;;;;;;7.00;4.75;;;;;;;19.89;100.00;99820.94;5009314;28;20038;-20
2023/05/28 08:45:54;;;;;;;9.13;5.30;;;;;;;20.32;100.00;99823.69;5009154;28;20026;-20
2023/05/28 08:48:22;;;;;;;8.20;5.40;;;;;;;20.52;100.00;99806.38;5009223;28;20128;-20
2023/05/28 08:50:50;;;;;;;8.77;4.70;;;;;;;21.05;100.00;99822.47;5009346;28;20121;-19
2023/05/28 08:53:18;;;;;;;9.10;4.53;;;;;;;21.05;100.00;99830.59;5009004;28;20025;-21
2023/05/28 08:55:45;;;;;;;6.60;4.30;;;;;;;20.68;100.00;99818.66;5009338;28;20037;-21
2023/05/28 08:58:11;;;;;;;6.55;4.28;;;;;;;20.91;100.00;99818.88;5009104;28;20038;-19
2023/05/28 09:00:37;;;;;;;7.50;4.50;;;;;;;20.63;100.00;99824.94;5008968;28;20517;-19
2023/05/28 09:03:07;;;;;;;6.38;4.22;;;;;;;20.71;100.00;99828.91;5009129;28;20105;-20
2023/05/28 09:05:36;;;;;;;6.03;4.07;;;;;;;20.52;100.00;99812.59;5008969;28;20026;-20
2023/05/28 09:08:07;;;;;;;7.63;5.03;;;;;;;20.38;100.00;99817.91;5009398;28;20026;-19
2023/05/28 09:10:33;;;;;;;9.18;4.50;;;;;;;20.29;100.00;99814.25;5008344;28;20022;-22
2023/05/28 09:13:00;;;;;;;9.07;5.00;;;;;;;20.35;100.00;99818.53;5008211;28;20108;-20
2023/05/28 09:15:26;;;;;;;6.90;4.80;;;;;;;20.33;100.00;99815.28;5008654;28;20041;-20
2023/05/28 09:17:51;;;;;;;6.50;4.10;;;;;;;20.16;100.00;99823.06;5008712;28;20037;-19
2023/05/28 09:20:17;;;;;;;10.07;5.72;;;;;;;20.25;100.00;99826.75;5008639;28;20025;-19
2023/05/28 09:22:56;;;;;;;8.52;5.53;;;;;;;20.12;100.00;99830.16;5008500;28;20021;-19
2023/05/28 09:25:24;;;;;;;8.73;5.30;;;;;;;19.91;100.00;99822.25;5008577;28;20099;-19
2023/05/28 09:27:50;;;;;;;11.70;6.07;;;;;;;19.84;100.00;99808.28;5008683;28;20018;-20
2023/05/28 09:30:15;;;;;;;16.83;7.57;;;;;;;19.63;100.00;99805.72;5008497;28;20101;-19
2023/05/28 09:32:41;;;;;;;12.73;6.50;;;;;;;19.36;100.00;99819.75;5007368;28;20120;-20
2023/05/28 09:35:07;;;;;;;13.13;7.00;;;;;;;19.35;100.00;99817.31;4998055;28;20029;-20
2023/05/28 09:37:34;;;;;;;10.60;6.10;;;;;;;19.26;100.00;99799.00;5006620;28;20030;-17
2023/05/28 09:40:09;;;;;;;11.40;6.18;;;;;;;19.47;100.00;99809.66;5007028;28;20038;-21
2023/05/28 09:42:41;;;;;;;9.10;6.00;;;;;;;19.70;100.00;99802.69;5004552;28;20119;-19
2023/05/28 09:45:08;;;;;;;9.85;5.95;;;;;;;19.86;100.00;99790.66;5007067;28;20057;-20
2023/05/28 09:47:41;;;;;;;10.25;6.50;;;;;;;20.45;100.00;99785.06;5007067;28;20017;-19
2023/05/28 09:50:07;;;;;;;8.63;6.22;;;;;;;21.04;100.00;99793.72;5004271;28;20030;-19
2023/05/28 09:52:34;;;;;;;8.35;5.85;;;;;;;21.46;100.00;99789.28;5007983;28;20032;-18
2023/05/28 09:55:04;;;;;;;10.68;6.43;;;;;;;21.66;100.00;99775.34;5008134;28;20036;-18
2023/05/28 09:57:30;;;;;;;11.02;5.15;;;;;;;21.64;100.00;99790.31;5008049;28;20030;-18
2023/05/28 09:59:56;;;;;;;9.05;5.53;;;;;;;21.89;100.00;99782.81;5007121;28;20057;-18
2023/05/28 10:02:28;;;;;;;9.25;5.57;;;;;;;22.41;100.00;99778.78;5007199;28;20028;-19
2023/05/28 10:04:56;;;;;;;8.57;5.40;;;;;;;22.51;100.00;99783.16;5007636;28;20022;-19
2023/05/28 10:07:25;;;;;;;7.80;5.65;;;;;;;22.20;100.00;99794.66;5007967;28;20034;-18
2023/05/28 10:09:53;;;;;;;7.55;4.97;;;;;;;22.00;100.00;99786.91;5007839;28;20180;-18
2023/05/28 10:12:23;;;;;;;9.82;5.10;;;;;;;22.15;100.00;99770.31;5007697;28;20029;-19
2023/05/28 10:14:49;;;;;;;8.27;5.15;;;;;;;21.73;100.00;99779.56;5007515;28;20036;-18
2023/05/28 10:17:17;;;;;;;9.73;5.88;;;;;;;21.64;100.00;99765.91;5007809;28;20038;-18
2023/05/28 10:19:45;;;;;;;8.15;5.93;;;;;;;21.47;100.00;99750.19;5007568;28;20034;-18
2023/05/28 10:22:12;;;;;;;8.60;5.30;;;;;;;21.34;100.00;99772.66;5007720;28;20041;-18
2023/05/28 10:24:38;;;;;;;8.95;6.05;;;;;;;21.25;100.00;99765.19;5007341;28;20029;-19
2023/05/28 10:27:07;;;;;;;7.95;5.20;;;;;;;21.34;100.00;99767.22;5007726;28;20033;-18
2023/05/28 10:29:41;;;;;;;8.98;5.72;;;;;;;21.41;100.00;99778.47;5006635;28;20060;-20
2023/05/28 10:32:07;;;;;;;8.73;4.95;;;;;;;21.45;100.00;99768.66;5003999;28;20030;-23
2023/05/28 10:34:35;;;;;;;8.73;5.03;;;;;;;21.49;100.00;99756.13;5006100;28;20025;-19
2023/05/28 10:37:05;;;;;;;;;;;;;;;21.27;100.00;99757.56;5006531;28;20048;-19
2023/05/28 10:39:41;;;;;;;8.07;5.28;;;;;;;21.40;100.00;99752.47;5005982;28;19953;-18
2023/05/28 10:42:09;;;;;;;7.18;5.30;;;;;;;21.57;100.00;99744.56;4991783;28;20046;-22
2023/05/28 10:44:59;;;;;;;8.65;5.47;;;;;;;21.78;100.00;99736.03;4987032;28;20588;-20
2023/05/28 10:47:35;;;;;;;7.07;4.95;;;;;;;21.83;100.00;99715.03;4986145;28;20030;-19
2023/05/28 10:50:11;;;;;;;10.18;6.55;;;;;;;22.14;100.00;99740.75;4986138;28;20038;-19
2023/05/28 10:52:37;;;;;;;8.35;5.00;;;;;;;22.26;100.00;99760.06;4986829;28;20022;-18
2023/05/28 10:55:03;;;;;;;8.35;5.53;;;;;;;22.48;100.00;99762.06;4986485;28;20031;-19
2023/05/28 10:57:41;;;;;;;8.13;5.28;;;;;;;22.58;100.00;99758.31;4986522;28;20058;-18
2023/05/28 11:00:12;;;;;;;6.15;4.47;;;;;;;22.63;100.00;99764.41;4985516;28;20026;-19
2023/05/28 11:02:39;;;;;;;7.45;4.68;;;;;;;22.43;100.00;99754.00;4983979;28;20035;-20
2023/05/28 11:05:05;;;;;;;7.57;4.88;;;;;;;22.18;100.00;99747.97;4985967;28;20425;-19
2023/05/28 11:07:32;;;;;;;9.65;5.15;;;;;;;22.07;100.00;99754.75;4986182;28;20034;-21
2023/05/28 11:09:59;;;;;;;10.10;5.75;;;;;;;21.75;100.00;99744.78;4984881;28;20780;-18
2023/05/28 11:12:29;;;;;;;9.95;5.93;;;;;;;21.49;100.00;99750.69;4988541;28;20446;-18
2023/05/28 11:14:55;;;;;;;6.88;4.85;;;;;;;21.17;100.00;99751.50;4995308;28;20172;-20
2023/05/28 11:17:21;;;;;;;6.80;5.03;;;;;;;20.87;100.00;99765.25;5007032;28;20463;-18